Time;durP1;ratioP1;P1;durP2;ratioP2;P2;SDS_P1;SDS_P2;PMS_P1;PMS_P2;Temp;Humidity;BMP_temperature;BMP_pressure;BME280_temperature;BME280_humidity;BME280_pressure;Samples;Min_cycle;Max_cycle;Signal;HPM_P1;HPM_P2
2021/12/19 00:00:53;;;;;;;11.50;6.53;;;;;;;;;;5039427;28;20355;-78
2021/12/19 00:08:50;;;;;;;9.10;6.18;;;5.20;99.90;;;;;;5025505;28;20898;-80
2021/12/19 00:11:18;;;;;;;10.25;5.85;;;5.10;99.90;;;;;;5026261;28;20033;-79
2021/12/19 00:13:44;;;;;;;8.93;4.90;;;5.20;99.90;;;;;;5018171;28;20116;-80
2021/12/19 00:16:11;;;;;;;10.63;6.07;;;5.10;99.90;;;;;;5025145;28;20128;-80
2021/12/19 00:18:37;;;;;;;33.13;11.27;;;5.10;99.90;;;;;;5023972;28;24842;-79
2021/12/19 00:21:03;;;;;;;23.88;9.35;;;7.60;99.90;;;;;;5028765;28;20052;-79
2021/12/19 00:23:30;;;;;;;17.83;7.88;;;5.20;99.90;;;;;;5024313;28;20034;-80
2021/12/19 00:25:56;;;;;;;7.47;4.93;;;5.20;99.90;;;;;;5025962;28;20025;-84
2021/12/19 00:28:22;;;;;;;28.92;10.60;;;5.10;99.90;;;;;;5028529;28;20507;-82
2021/12/19 00:30:47;;;;;;;18.63;6.95;;;5.10;99.90;;;;;;5026990;28;20057;-80
2021/12/19 00:33:13;;;;;;;13.07;6.30;;;5.10;99.90;;;;;;5025272;28;21111;-82
2021/12/19 00:35:39;;;;;;;11.43;5.82;;;5.10;99.90;;;;;;5028369;28;20047;-82
2021/12/19 00:38:05;;;;;;;9.50;4.88;;;5.10;99.90;;;;;;5026388;28;20048;-82
2021/12/19 00:40:32;;;;;;;13.88;6.10;;;5.00;99.90;;;;;;5023332;28;20522;-83
2021/12/19 00:43:06;;;;;;;31.55;13.63;;;5.00;99.90;;;;;;5026316;28;20124;-78
2021/12/19 00:45:35;;;;;;;10.55;5.88;;;4.70;99.90;;;;;;5019787;28;20025;-78
2021/12/19 00:48:03;;;;;;;9.70;6.25;;;5.00;99.90;;;;;;5025327;28;20048;-78
2021/12/19 00:50:29;;;;;;;9.55;4.75;;;5.00;99.90;;;;;;5009922;28;20031;-81
2021/12/19 00:52:55;;;;;;;10.55;5.70;;;6.40;99.90;;;;;;5028299;28;20052;-80
2021/12/19 00:55:24;;;;;;;15.23;7.05;;;4.90;99.90;;;;;;5026297;28;20495;-81
2021/12/19 00:57:51;;;;;;;16.10;7.78;;;6.60;99.90;;;;;;5044165;28;20080;-79
2021/12/19 01:00:19;;;;;;;8.77;5.00;;;4.90;99.90;;;;;;5026509;28;20037;-79
2021/12/19 01:02:46;;;;;;;10.40;5.85;;;5.00;99.90;;;;;;5026902;28;20087;-79
2021/12/19 01:05:12;;;;;;;41.10;14.77;;;;;;;;;;5024260;28;20120;-83
2021/12/19 01:07:38;;;;;;;11.85;5.22;;;;;;;;;;5024162;28;20528;-81
2021/12/19 01:10:07;;;;;;;20.92;8.40;;;5.10;99.90;;;;;;5027066;28;20030;-79
2021/12/19 01:12:36;;;;;;;12.52;6.50;;;5.10;99.90;;;;;;5022838;28;20052;-79
2021/12/19 01:15:03;;;;;;;12.73;6.97;;;5.10;99.90;;;;;;5022859;28;20029;-78
2021/12/19 01:17:29;;;;;;;9.18;5.65;;;5.00;99.90;;;;;;5025368;28;20029;-79
2021/12/19 01:19:54;;;;;;;9.65;6.43;;;5.00;99.90;;;;;;5020805;28;20595;-80
2021/12/19 01:22:20;;;;;;;10.25;6.88;;;4.90;99.90;;;;;;5025372;28;20037;-81
2021/12/19 01:24:45;;;;;;;12.95;6.93;;;5.00;99.90;;;;;;5022532;28;20029;-78
2021/12/19 01:27:11;;;;;;;10.90;6.13;;;;;;;;;;5020487;28;20037;-78
2021/12/19 01:29:37;;;;;;;13.90;7.70;;;4.90;99.90;;;;;;5026427;28;20053;-78
2021/12/19 01:32:03;;;;;;;9.60;6.13;;;5.00;99.90;;;;;;5021532;28;20123;-80
2021/12/19 01:34:29;;;;;;;10.05;5.72;;;5.00;99.90;;;;;;5023051;28;20617;-81
2021/12/19 01:36:54;;;;;;;8.23;5.30;;;5.00;99.90;;;;;;5026431;28;20025;-81
2021/12/19 01:39:20;;;;;;;8.45;5.15;;;5.00;99.90;;;;;;5022018;28;20483;-80
2021/12/19 01:41:48;;;;;;;11.85;6.53;;;4.90;99.90;;;;;;5024561;28;20163;-76
2021/12/19 01:44:14;;;;;;;16.27;7.78;;;4.80;99.90;;;;;;5027504;28;20036;-80
2021/12/19 01:46:40;;;;;;;14.20;7.38;;;4.80;99.90;;;;;;5023034;28;20037;-79
2021/12/19 01:49:06;;;;;;;10.02;5.97;;;4.80;99.90;;;;;;5024968;28;20041;-79
2021/12/19 01:51:32;;;;;;;9.63;5.78;;;4.70;99.90;;;;;;5021912;28;20451;-76
2021/12/19 01:53:58;;;;;;;11.57;7.07;;;4.60;99.90;;;;;;5023363;28;20030;-81
2021/12/19 01:56:24;;;;;;;10.38;6.32;;;4.60;99.90;;;;;;5021724;28;20133;-80
2021/12/19 01:58:49;;;;;;;14.63;7.70;;;4.60;99.90;;;;;;5021960;28;20021;-78
2021/12/19 02:01:15;;;;;;;10.07;6.25;;;4.60;99.90;;;;;;5023486;28;20133;-81
2021/12/19 02:03:41;;;;;;;9.20;6.10;;;4.70;99.90;;;;;;5023066;28;20032;-79
2021/12/19 02:06:06;;;;;;;11.43;6.50;;;4.60;99.90;;;;;;5023618;28;20045;-79
2021/12/19 02:08:32;;;;;;;10.05;6.47;;;4.70;99.90;;;;;;5025338;28;20033;-78
2021/12/19 02:10:58;;;;;;;7.55;4.82;;;4.70;99.90;;;;;;5024576;28;20284;-79
2021/12/19 02:13:24;;;;;;;7.82;5.22;;;4.80;99.90;;;;;;5023624;28;20053;-80
2021/12/19 02:15:50;;;;;;;5.90;4.15;;;4.80;99.90;;;;;;5019108;28;20045;-81
2021/12/19 02:18:18;;;;;;;7.55;4.57;;;4.90;99.90;;;;;;5025902;28;20108;-81
2021/12/19 02:20:50;;;;;;;6.20;4.40;;;4.90;99.90;;;;;;5039667;28;20033;-79
2021/12/19 02:23:19;;;;;;;6.60;4.72;;;5.10;99.90;;;;;;5025543;28;20031;-81
2021/12/19 02:25:45;;;;;;;7.28;4.85;;;4.70;99.90;;;;;;5019238;28;20063;-79
2021/12/19 02:28:12;;;;;;;5.65;3.67;;;4.70;99.90;;;;;;5035256;28;20033;-79
2021/12/19 02:30:38;;;;;;;7.95;5.50;;;4.70;99.90;;;;;;5020324;28;20032;-80
2021/12/19 02:33:14;;;;;;;7.55;5.30;;;4.70;99.90;;;;;;5023267;28;20056;-78
2021/12/19 02:35:45;;;;;;;7.55;5.28;;;4.60;99.90;;;;;;5019424;28;20022;-79
2021/12/19 02:49:23;;;;;;;8.00;5.38;;;4.40;99.90;;;;;;5026204;28;20490;-80
2021/12/19 02:51:51;;;;;;;8.15;5.57;;;4.50;99.90;;;;;;5021302;28;20025;-76
2021/12/19 02:54:17;;;;;;;7.85;5.65;;;4.50;99.90;;;;;;5025663;28;20569;-79
2021/12/19 02:56:42;;;;;;;8.57;6.10;;;4.50;99.90;;;;;;5021471;28;20026;-78
2021/12/19 02:59:08;;;;;;;6.85;4.70;;;4.50;99.90;;;;;;5027180;28;20037;-80
2021/12/19 03:01:34;;;;;;;8.90;5.60;;;4.50;99.90;;;;;;5023182;28;20033;-83
2021/12/19 03:03:59;;;;;;;7.97;5.78;;;4.60;99.90;;;;;;5019905;28;20033;-81
2021/12/19 03:06:25;;;;;;;9.15;6.15;;;4.60;99.90;;;;;;5019706;28;20124;-79
2021/12/19 03:08:52;;;;;;;8.07;5.22;;;4.50;99.90;;;;;;5022172;28;20587;-79
2021/12/19 03:19:48;;;;;;;;;;;4.70;99.90;;;;;;4986824;28;20089;-82
2021/12/19 03:22:14;;;;;;;14.63;6.60;;;4.70;99.90;;;;;;5008679;28;19913;-80
2021/12/19 03:24:40;;;;;;;8.57;5.25;;;5.10;99.90;;;;;;5023052;28;20034;-78
2021/12/19 03:27:05;;;;;;;7.70;4.78;;;4.70;99.90;;;;;;5021284;28;20097;-81
2021/12/19 03:29:31;;;;;;;8.00;5.40;;;4.70;99.90;;;;;;5021239;28;20612;-78
2021/12/19 03:31:57;;;;;;;11.63;6.72;;;7.00;99.90;;;;;;5019408;28;20467;-79
2021/12/19 03:34:22;;;;;;;9.70;6.43;;;4.70;99.90;;;;;;5023281;28;20033;-81
2021/12/19 03:36:48;;;;;;;9.15;5.25;;;4.70;99.90;;;;;;5021284;28;20081;-81
2021/12/19 03:39:25;;;;;;;7.22;4.47;;;4.70;99.90;;;;;;5023188;28;20033;-79
2021/12/19 03:41:54;;;;;;;7.30;4.75;;;4.70;99.90;;;;;;5021453;28;20116;-80
2021/12/19 03:44:19;;;;;;;7.90;5.07;;;4.70;99.90;;;;;;5020623;28;20361;-80
2021/12/19 03:46:45;;;;;;;10.43;6.40;;;4.70;99.90;;;;;;5020349;28;20030;-79
2021/12/19 03:49:11;;;;;;;9.98;6.32;;;4.70;99.90;;;;;;5022343;28;20312;-80
2021/12/19 03:51:37;;;;;;;9.90;6.35;;;4.70;99.90;;;;;;5018677;28;20169;-79
2021/12/19 03:54:02;;;;;;;6.93;4.40;;;4.70;99.90;;;;;;5022582;28;20144;-78
2021/12/19 03:56:28;;;;;;;6.30;4.45;;;4.70;99.90;;;;;;5019292;28;20391;-80
2021/12/19 03:58:54;;;;;;;7.15;4.47;;;4.70;99.90;;;;;;5026569;28;20021;-82
2021/12/19 04:01:20;;;;;;;6.50;4.22;;;4.60;99.90;;;;;;5019847;28;20033;-80
2021/12/19 04:03:46;;;;;;;9.32;5.53;;;4.60;99.90;;;;;;5023387;28;20503;-78
2021/12/19 04:06:12;;;;;;;9.88;5.95;;;4.50;99.90;;;;;;5023677;28;20030;-79
2021/12/19 04:08:38;;;;;;;9.57;5.30;;;4.50;99.90;;;;;;5022697;28;20028;-84
2021/12/19 04:11:03;;;;;;;11.18;6.22;;;4.50;99.90;;;;;;5023211;28;20026;-79
2021/12/19 04:13:29;;;;;;;10.18;5.60;;;4.60;99.90;;;;;;5023062;28;20034;-80
2021/12/19 04:15:55;;;;;;;9.23;5.90;;;4.60;99.90;;;;;;5024232;28;20026;-80
2021/12/19 04:18:21;;;;;;;9.00;5.20;;;;;;;;;;5024704;28;20026;-81
2021/12/19 04:20:47;;;;;;;7.97;5.05;;;;;;;;;;5037264;28;20030;-81
2021/12/19 04:23:13;;;;;;;8.32;4.95;;;4.70;99.90;;;;;;5023565;28;20052;-80
2021/12/19 04:25:39;;;;;;;7.85;4.75;;;;;;;;;;5018624;28;20087;-78
2021/12/19 04:28:05;;;;;;;6.78;4.40;;;4.80;99.90;;;;;;5021307;28;20033;-80
2021/12/19 04:30:31;;;;;;;5.22;3.67;;;4.70;99.90;;;;;;5020668;28;20030;-78
2021/12/19 04:33:07;;;;;;;6.13;3.30;;;4.70;99.90;;;;;;5028736;28;20040;-79
2021/12/19 04:35:36;;;;;;;5.35;3.58;;;7.70;99.90;;;;;;5023027;28;20159;-79
2021/12/19 04:40:52;;;;;;;4.63;3.13;;;4.70;99.90;;;;;;5021488;28;20030;-81
2021/12/19 04:44:27;;;;;;;4.18;2.90;;;4.60;99.90;;;;;;5027592;28;20029;-78
2021/12/19 05:02:14;;;;;;;5.82;3.47;;;4.40;99.90;;;;;;5022819;28;20043;-80
2021/12/19 05:15:34;;;;;;;2.42;1.70;;;4.40;99.90;;;;;;5024881;28;20056;-78
2021/12/19 05:18:05;;;;;;;2.45;1.88;;;4.40;99.90;;;;;;5025595;28;20097;-78
2021/12/19 05:20:32;;;;;;;2.33;1.50;;;4.40;99.90;;;;;;5027255;28;20025;-79
2021/12/19 05:23:16;;;;;;;2.70;1.80;;;4.40;99.90;;;;;;5025466;28;20032;-79
2021/12/19 05:25:42;;;;;;;2.45;1.60;;;4.40;99.90;;;;;;5024672;28;20041;-79
2021/12/19 05:28:08;;;;;;;3.22;2.10;;;4.30;99.90;;;;;;5027787;28;20029;-78
2021/12/19 05:30:33;;;;;;;2.88;1.70;;;4.30;99.90;;;;;;5028032;28;20052;-81
2021/12/19 05:33:01;;;;;;;2.40;1.48;;;4.30;99.90;;;;;;5026321;28;20460;-82
2021/12/19 05:44:08;;;;;;;3.10;2.30;;;4.40;99.90;;;;;;5028499;28;20380;-78
2021/12/19 05:46:29;;;;;;;3.42;2.42;;;4.30;99.90;;;;;;5024195;28;20117;-79
2021/12/19 05:48:55;;;;;;;3.58;2.38;;;4.30;99.90;;;;;;5022463;28;20113;-79
2021/12/19 05:51:21;;;;;;;2.97;2.10;;;4.30;99.90;;;;;;5024242;28;20124;-80
2021/12/19 05:53:47;;;;;;;4.93;2.30;;;4.40;99.90;;;;;;5022913;28;20037;-78
2021/12/19 05:56:12;;;;;;;3.85;2.35;;;4.50;99.90;;;;;;5039056;28;20048;-78
2021/12/19 05:58:38;;;;;;;4.32;2.60;;;4.30;99.90;;;;;;5021970;28;20072;-79
2021/12/19 06:01:04;;;;;;;3.35;2.20;;;4.40;99.90;;;;;;5022528;28;20053;-82
2021/12/19 06:03:29;;;;;;;4.70;2.90;;;4.30;99.90;;;;;;5022424;28;20033;-78
2021/12/19 06:05:55;;;;;;;4.85;2.58;;;;;;;;;;5020988;28;20067;-78
2021/12/19 06:08:21;;;;;;;5.18;3.10;;;4.20;99.90;;;;;;5024445;28;20033;-78
2021/12/19 06:10:47;;;;;;;4.15;2.95;;;4.20;99.90;;;;;;5022569;28;20033;-79
2021/12/19 06:13:12;;;;;;;4.93;3.38;;;4.20;99.90;;;;;;5019880;28;20797;-80
2021/12/19 06:15:38;;;;;;;3.50;2.30;;;4.20;99.90;;;;;;5022619;28;20021;-79
2021/12/19 06:18:04;;;;;;;4.28;2.80;;;4.20;99.90;;;;;;5023153;28;20527;-79
2021/12/19 06:20:31;;;;;;;4.50;3.13;;;4.10;99.90;;;;;;5029763;28;20029;-79
2021/12/19 06:22:58;;;;;;;5.30;3.38;;;5.00;99.90;;;;;;5027911;28;20519;-78
2021/12/19 06:25:24;;;;;;;5.75;3.33;;;4.10;99.90;;;;;;5021583;28;20042;-79
2021/12/19 06:27:49;;;;;;;5.00;3.10;;;4.10;99.90;;;;;;5025149;28;20084;-78
2021/12/19 06:30:15;;;;;;;4.90;2.85;;;4.10;99.90;;;;;;5027219;28;20063;-77
2021/12/19 06:32:41;;;;;;;4.65;3.05;;;4.10;99.90;;;;;;5027429;28;20041;-78
2021/12/19 06:35:12;;;;;;;5.97;3.65;;;4.10;99.90;;;;;;5027417;28;20045;-78
2021/12/19 06:37:38;;;;;;;3.88;2.75;;;4.10;99.90;;;;;;5024363;28;20155;-79
2021/12/19 06:40:09;;;;;;;4.15;3.15;;;4.10;99.90;;;;;;5025863;28;20100;-79
2021/12/19 06:42:35;;;;;;;5.38;3.28;;;4.20;99.90;;;;;;5027836;28;20109;-78
2021/12/19 06:45:01;;;;;;;6.35;3.80;;;4.20;99.90;;;;;;5025303;28;20026;-79
2021/12/19 06:47:26;;;;;;;5.03;3.10;;;4.20;99.90;;;;;;5028969;28;20786;-81
2021/12/19 06:49:52;;;;;;;4.45;2.95;;;4.30;99.90;;;;;;5017510;28;20109;-81
2021/12/19 06:52:18;;;;;;;5.05;2.88;;;4.30;99.90;;;;;;5022654;28;20029;-79
2021/12/19 06:54:43;;;;;;;4.75;2.88;;;4.30;99.90;;;;;;5026937;28;20021;-79
2021/12/19 06:57:09;;;;;;;4.85;3.05;;;4.30;99.90;;;;;;5030317;28;20037;-79
2021/12/19 06:59:34;;;;;;;6.65;3.47;;;4.30;99.90;;;;;;5026366;28;20033;-80
2021/12/19 07:02:00;;;;;;;3.58;2.33;;;4.40;99.90;;;;;;5022737;28;20338;-79
2021/12/19 07:04:26;;;;;;;4.00;2.58;;;4.30;99.90;;;;;;5023424;28;20106;-79
2021/12/19 07:06:52;;;;;;;3.50;2.53;;;;;;;;;;5027013;28;20033;-78
2021/12/19 07:09:18;;;;;;;4.45;3.13;;;;;;;;;;5039936;28;20464;-81
2021/12/19 07:11:44;;;;;;;5.10;3.38;;;;;;;;;;5025162;28;20021;-77
2021/12/19 07:14:09;;;;;;;4.40;2.90;;;4.20;99.90;;;;;;5022693;28;20033;-79
2021/12/19 07:16:35;;;;;;;6.07;3.60;;;4.20;99.90;;;;;;5022526;28;20113;-79
2021/12/19 07:19:00;;;;;;;4.07;2.70;;;4.30;99.90;;;;;;5017003;28;20128;-78
2021/12/19 07:21:28;;;;;;;4.70;2.90;;;4.30;99.90;;;;;;5019398;28;20032;-80
2021/12/19 07:23:53;;;;;;;4.57;3.22;;;4.30;99.90;;;;;;5019891;28;20068;-77
2021/12/19 07:26:19;;;;;;;5.00;3.22;;;4.20;99.90;;;;;;5025802;28;20029;-79
2021/12/19 07:28:47;;;;;;;4.80;3.53;;;4.20;99.90;;;;;;5022475;28;20036;-78
2021/12/19 07:31:18;;;;;;;5.80;4.10;;;4.30;99.90;;;;;;5022316;28;20018;-76
2021/12/19 07:33:45;;;;;;;5.40;3.63;;;4.30;99.90;;;;;;5021944;28;20037;-78
2021/12/19 07:36:11;;;;;;;4.63;3.03;;;;;;;;;;5021597;28;20033;-79
2021/12/19 07:38:49;;;;;;;5.50;3.53;;;4.40;99.90;;;;;;5022427;28;20033;-78
2021/12/19 07:41:15;;;;;;;4.80;3.42;;;4.40;99.90;;;;;;5023914;28;20061;-77
2021/12/19 07:43:40;;;;;;;4.88;3.60;;;4.40;99.90;;;;;;5019313;28;20506;-79
2021/12/19 07:46:06;;;;;;;5.15;3.15;;;4.50;99.90;;;;;;5021746;28;20060;-78
2021/12/19 07:48:31;;;;;;;4.80;3.40;;;4.40;99.90;;;;;;5022567;28;20128;-78
2021/12/19 07:50:57;;;;;;;6.82;4.45;;;4.40;99.90;;;;;;5024466;28;20071;-79
2021/12/19 07:53:23;;;;;;;4.43;3.10;;;4.40;99.90;;;;;;5024084;28;20029;-77
2021/12/19 07:55:49;;;;;;;5.90;3.55;;;4.50;99.90;;;;;;5028227;28;20024;-80
2021/12/19 07:58:14;;;;;;;4.38;3.03;;;4.40;99.90;;;;;;5026389;28;20398;-77
2021/12/19 08:00:40;;;;;;;5.03;2.85;;;4.40;99.90;;;;;;5032033;28;20038;-80
2021/12/19 08:03:05;;;;;;;5.03;3.58;;;4.40;99.90;;;;;;5031089;28;20072;-78
2021/12/19 08:05:31;;;;;;;4.82;3.47;;;4.40;99.90;;;;;;5011189;28;20049;-77
2021/12/19 08:08:01;;;;;;;4.95;3.38;;;4.40;99.90;;;;;;5026150;28;20041;-78
2021/12/19 08:13:04;;;;;;;6.15;3.78;;;4.50;99.90;;;;;;5024568;28;20030;-79
2021/12/19 08:15:31;;;;;;;5.90;3.35;;;4.40;99.90;;;;;;5027075;28;20032;-80
2021/12/19 08:17:56;;;;;;;4.40;3.08;;;4.40;99.90;;;;;;5026982;28;20084;-80
2021/12/19 08:20:22;;;;;;;4.82;3.30;;;4.30;99.90;;;;;;5025922;28;20483;-78
2021/12/19 08:22:50;;;;;;;6.65;3.95;;;4.70;99.90;;;;;;5027134;28;20057;-79
2021/12/19 08:25:16;;;;;;;7.13;4.18;;;4.30;99.90;;;;;;5028098;28;20042;-77
2021/12/19 08:27:41;;;;;;;4.65;3.25;;;4.30;99.90;;;;;;5021972;28;20115;-77
2021/12/19 08:30:10;;;;;;;5.15;3.60;;;4.40;99.90;;;;;;5024693;28;20447;-78
2021/12/19 08:32:36;;;;;;;6.47;4.10;;;4.30;99.90;;;;;;5026684;28;20033;-82
2021/12/19 08:35:03;;;;;;;8.57;4.45;;;4.20;99.90;;;;;;5027882;28;20037;-77
2021/12/19 08:37:29;;;;;;;6.90;4.10;;;4.30;99.90;;;;;;5028035;28;20567;-78
2021/12/19 08:39:56;;;;;;;6.70;4.22;;;4.30;99.90;;;;;;5025759;28;20112;-79
2021/12/19 08:42:22;;;;;;;6.35;3.80;;;4.40;99.90;;;;;;5022512;28;20036;-78
2021/12/19 08:44:48;;;;;;;7.85;4.57;;;4.40;99.90;;;;;;5027822;28;20068;-79
2021/12/19 08:47:14;;;;;;;6.88;4.30;;;4.40;99.90;;;;;;5031368;28;20120;-80
2021/12/19 08:49:40;;;;;;;6.18;4.07;;;4.40;99.90;;;;;;5030810;28;20025;-78
2021/12/19 08:52:07;;;;;;;8.88;5.63;;;4.30;99.90;;;;;;5026261;28;20053;-78
2021/12/19 08:54:33;;;;;;;8.95;5.22;;;4.30;99.90;;;;;;5019775;28;20030;-77
2021/12/19 08:56:59;;;;;;;7.53;4.57;;;4.40;99.90;;;;;;5022752;28;20029;-78
2021/12/19 08:59:26;;;;;;;5.90;3.90;;;4.40;99.90;;;;;;5022788;28;20022;-78
2021/12/19 09:01:53;;;;;;;5.32;3.30;;;4.60;99.90;;;;;;5016845;28;20128;-79
2021/12/19 09:04:19;;;;;;;7.60;4.43;;;4.70;99.90;;;;;;5023281;28;20061;-78
2021/12/19 09:06:45;;;;;;;8.05;5.10;;;4.50;99.90;;;;;;5018086;28;20460;-79
2021/12/19 09:09:10;;;;;;;8.45;5.25;;;4.50;99.90;;;;;;5019633;28;20061;-77
2021/12/19 09:11:36;;;;;;;9.38;5.43;;;4.50;99.90;;;;;;5042972;28;20476;-80
2021/12/19 09:14:02;;;;;;;9.07;5.55;;;4.50;99.90;;;;;;5030035;28;20056;-80
2021/12/19 09:16:28;;;;;;;8.52;5.40;;;4.50;99.90;;;;;;5025075;28;20450;-78
2021/12/19 09:18:54;;;;;;;8.82;5.57;;;4.70;99.90;;;;;;5025748;28;20066;-78
2021/12/19 09:21:19;;;;;;;10.50;5.45;;;4.50;99.90;;;;;;5028584;28;20041;-78
2021/12/19 09:23:45;;;;;;;9.55;5.45;;;4.50;99.90;;;;;;5021021;28;20044;-77
2021/12/19 09:26:11;;;;;;;10.15;6.22;;;;;;;;;;5040727;28;20056;-79
2021/12/19 09:28:37;;;;;;;10.98;6.07;;;4.60;99.90;;;;;;5026043;28;20506;-80
2021/12/19 09:31:03;;;;;;;9.65;5.95;;;4.70;99.90;;;;;;5024928;28;20126;-79
2021/12/19 09:33:29;;;;;;;10.18;6.65;;;4.70;99.90;;;;;;5024745;28;20110;-79
2021/12/19 09:35:57;;;;;;;9.10;5.35;;;4.70;99.90;;;;;;5028514;28;20034;-80
2021/12/19 09:38:23;;;;;;;11.23;6.50;;;4.70;99.90;;;;;;5027735;28;20416;-79
2021/12/19 09:40:50;;;;;;;11.15;6.38;;;4.60;99.90;;;;;;5033183;28;20028;-79
2021/12/19 09:43:41;;;;;;;11.23;6.50;;;4.70;99.90;;;;;;5027878;28;20491;-76
2021/12/19 09:46:10;;;;;;;9.23;5.82;;;4.60;99.90;;;;;;5024961;28;20037;-81
2021/12/19 09:48:38;;;;;;;10.25;6.18;;;4.60;99.90;;;;;;5023558;28;20108;-80
2021/12/19 09:51:04;;;;;;;12.98;7.35;;;4.50;99.90;;;;;;5020793;28;20030;-82
2021/12/19 09:53:29;;;;;;;10.93;5.93;;;4.50;99.90;;;;;;5016712;28;20023;-80
2021/12/19 09:55:55;;;;;;;10.77;5.85;;;4.60;99.90;;;;;;5039745;28;20084;-80
2021/12/19 09:58:21;;;;;;;12.27;6.88;;;4.60;99.90;;;;;;5023167;28;20372;-77
2021/12/19 10:00:46;;;;;;;9.98;5.88;;;4.60;99.90;;;;;;5019692;28;20092;-79
2021/12/19 10:03:12;;;;;;;8.18;5.07;;;4.60;99.90;;;;;;5026447;28;20029;-80
2021/12/19 10:05:38;;;;;;;8.00;4.80;;;4.70;99.90;;;;;;5043023;28;20461;-78
2021/12/19 10:08:04;;;;;;;8.95;5.60;;;4.80;99.90;;;;;;5017993;28;20092;-81
2021/12/19 10:10:45;;;;;;;7.43;4.63;;;4.80;99.90;;;;;;5017478;28;20124;-78
2021/12/19 10:13:11;;;;;;;8.77;5.10;;;;;;;;;;5014121;28;20029;-79
2021/12/19 10:15:39;;;;;;;7.05;4.25;;;4.60;99.90;;;;;;5025818;28;20068;-79
2021/12/19 10:18:15;;;;;;;8.43;4.97;;;6.40;99.90;;;;;;5027447;28;20036;-79
2021/12/19 10:20:59;;;;;;;8.90;4.75;;;4.60;99.90;;;;;;5000856;28;20398;-79
2021/12/19 10:23:36;;;;;;;7.75;4.13;;;4.70;99.90;;;;;;5016400;28;20052;-78
2021/12/19 10:26:08;;;;;;;7.75;4.43;;;4.70;99.90;;;;;;5017110;28;20057;-79
2021/12/19 10:28:54;;;;;;;6.70;4.68;;;4.70;99.90;;;;;;5017918;28;20041;-80
2021/12/19 10:31:21;;;;;;;7.15;4.55;;;;;;;;;;5011869;28;20479;-79
2021/12/19 10:33:47;;;;;;;7.68;4.60;;;4.70;99.90;;;;;;5022043;28;20030;-79
2021/12/19 10:36:14;;;;;;;7.72;4.60;;;4.60;99.90;;;;;;5021429;28;20033;-78
2021/12/19 10:38:56;;;;;;;8.43;5.10;;;4.80;99.90;;;;;;5020584;28;20041;-82
2021/12/19 10:41:30;;;;;;;9.27;5.45;;;4.90;99.90;;;;;;5018392;28;20036;-79
2021/12/19 10:44:07;;;;;;;8.75;4.72;;;4.90;99.90;;;;;;5026079;28;20093;-79
2021/12/19 10:46:39;;;;;;;10.27;5.45;;;4.90;99.90;;;;;;5026915;28;20212;-79
2021/12/19 10:49:22;;;;;;;10.07;6.35;;;5.00;99.90;;;;;;5028096;28;20033;-78
2021/12/19 10:51:54;;;;;;;8.80;5.25;;;5.00;99.90;;;;;;5032321;28;20041;-82
2021/12/19 10:54:23;;;;;;;9.35;5.70;;;5.10;99.90;;;;;;5020517;28;20034;-79
2021/12/19 10:56:48;;;;;;;9.95;5.63;;;5.20;99.90;;;;;;5017221;28;20705;-82
2021/12/19 10:59:24;;;;;;;11.90;6.40;;;5.10;99.90;;;;;;5018464;28;20090;-81
2021/12/19 11:01:52;;;;;;;10.57;6.15;;;5.20;99.90;;;;;;5017168;28;20065;-82
2021/12/19 11:04:19;;;;;;;12.85;7.25;;;5.90;99.90;;;;;;5024235;28;20043;-79
2021/12/19 11:06:47;;;;;;;10.18;6.18;;;5.20;99.90;;;;;;5019047;28;20065;-81
2021/12/19 11:09:14;;;;;;;10.55;6.18;;;8.00;99.90;;;;;;5020953;28;20071;-78
2021/12/19 11:11:54;;;;;;;12.63;6.90;;;6.10;99.90;;;;;;5020414;28;20014;-79
2021/12/19 11:14:30;;;;;;;14.10;8.05;;;5.20;99.90;;;;;;5019750;28;20120;-79
2021/12/19 11:17:00;;;;;;;12.38;6.85;;;5.10;99.90;;;;;;5020302;28;20116;-79
2021/12/19 11:19:27;;;;;;;11.85;6.68;;;5.10;99.90;;;;;;5022751;28;20032;-81
2021/12/19 11:21:53;;;;;;;11.75;6.90;;;5.10;99.90;;;;;;5015563;28;20986;-81
2021/12/19 11:24:20;;;;;;;11.98;7.28;;;5.20;99.90;;;;;;5023157;28;20052;-80
2021/12/19 11:26:50;;;;;;;14.70;8.38;;;5.10;99.90;;;;;;5019098;28;20033;-80
2021/12/19 11:29:16;;;;;;;10.75;6.80;;;5.10;99.90;;;;;;5021994;28;20030;-78
2021/12/19 11:31:46;;;;;;;11.75;6.78;;;5.00;99.90;;;;;;5023780;28;20048;-78
2021/12/19 11:34:45;;;;;;;10.70;6.53;;;5.00;99.90;;;;;;5023673;28;20029;-80
2021/12/19 11:37:18;;;;;;;10.63;6.32;;;5.10;99.90;;;;;;5025077;28;20128;-79
2021/12/19 11:39:50;;;;;;;12.18;6.72;;;5.10;99.90;;;;;;5024115;28;20048;-83
2021/12/19 11:42:16;;;;;;;12.57;7.40;;;;;;;;;;5022270;28;20041;-80
2021/12/19 11:45:02;;;;;;;12.27;7.70;;;5.10;99.90;;;;;;5038675;28;20037;-80
2021/12/19 11:47:54;;;;;;;11.95;7.43;;;5.20;99.90;;;;;;5024670;28;20534;-80
2021/12/19 11:50:26;;;;;;;10.80;6.53;;;;;;;;;;5027189;28;20030;-80
2021/12/19 11:52:57;;;;;;;10.35;6.15;;;5.40;99.90;;;;;;5026567;28;20196;-82
2021/12/19 11:55:44;;;;;;;11.80;6.70;;;5.50;99.90;;;;;;5024033;28;20029;-86
2021/12/19 11:58:11;;;;;;;11.38;6.78;;;;;;;;;;5024415;28;20071;-83
2021/12/19 12:00:58;;;;;;;11.20;6.85;;;5.50;99.90;;;;;;5023784;28;20040;-80
2021/12/19 12:03:37;;;;;;;9.52;6.28;;;5.50;99.90;;;;;;5023156;28;20025;-83
2021/12/19 12:06:10;;;;;;;12.65;7.10;;;;;;;;;;5027015;28;20037;-82
2021/12/19 12:08:36;;;;;;;10.48;6.65;;;;;;;;;;5021032;28;20037;-82
2021/12/19 12:11:05;;;;;;;10.80;7.47;;;;;;;;;;5025263;28;20566;-82
2021/12/19 12:13:36;;;;;;;10.27;6.10;;;5.60;99.90;;;;;;5044893;28;20095;-80
2021/12/19 12:18:42;;;;;;;6.38;4.10;;;5.50;99.90;;;;;;5021443;28;20033;-85
2021/12/19 12:23:52;;;;;;;9.00;5.53;;;;;;;;;;5028228;28;20044;-83
2021/12/19 12:26:26;;;;;;;8.18;5.82;;;;;;;;;;5027284;28;20053;-88
2021/12/19 12:28:52;;;;;;;10.88;5.38;;;;;;;;;;5025284;28;20030;-82
2021/12/19 12:31:18;;;;;;;7.63;4.78;;;;;;;;;;5028452;28;20080;-80
2021/12/19 12:33:45;;;;;;;9.38;5.53;;;;;;;;;;5022071;28;21523;-82
2021/12/19 12:36:11;;;;;;;8.52;5.15;;;;;;;;;;5024940;28;20033;-81
2021/12/19 12:38:37;;;;;;;7.57;4.90;;;;;;;;;;5037888;28;20417;-84
2021/12/19 12:41:10;;;;;;;6.32;3.83;;;5.60;99.90;;;;;;5028289;28;20033;-78
2021/12/19 12:43:39;;;;;;;6.93;4.35;;;5.70;99.90;;;;;;5021836;28;20142;-80
2021/12/19 12:46:17;;;;;;;6.82;4.35;;;5.60;99.90;;;;;;5022018;28;20033;-80
2021/12/19 12:48:56;;;;;;;7.80;4.60;;;5.60;99.90;;;;;;5024115;28;20041;-84
2021/12/19 12:51:43;;;;;;;6.95;4.60;;;6.00;99.90;;;;;;5022037;28;20036;-78
2021/12/19 12:54:11;;;;;;;7.32;4.40;;;5.70;99.90;;;;;;5027007;28;20112;-83
2021/12/19 12:56:44;;;;;;;7.38;5.20;;;5.60;99.90;;;;;;5011882;28;20040;-83
2021/12/19 12:59:10;;;;;;;9.45;5.10;;;5.70;99.90;;;;;;5023980;28;20478;-80
2021/12/19 13:01:53;;;;;;;9.18;5.75;;;5.70;99.90;;;;;;5026842;28;20451;-81
2021/12/19 13:04:25;;;;;;;9.07;5.65;;;5.70;99.90;;;;;;5023927;28;20117;-83
2021/12/19 13:06:59;;;;;;;8.73;5.50;;;5.80;99.90;;;;;;5029065;28;20018;-77
2021/12/19 13:09:31;;;;;;;7.65;4.75;;;5.80;99.90;;;;;;5019276;28;20127;-80
2021/12/19 13:12:00;;;;;;;8.68;4.90;;;;;;;;;;5020721;28;20936;-78
2021/12/19 13:14:27;;;;;;;9.35;5.55;;;5.80;99.90;;;;;;5025072;28;20333;-79
2021/12/19 13:16:59;;;;;;;9.05;5.50;;;5.80;99.90;;;;;;5025632;28;20029;-80
2021/12/19 13:19:39;;;;;;;11.88;6.45;;;5.90;99.90;;;;;;5024695;28;20021;-79
2021/12/19 13:22:10;;;;;;;9.93;6.18;;;5.80;99.90;;;;;;5028904;28;20094;-80
2021/12/19 13:24:36;;;;;;;9.85;5.57;;;;;;;;;;5024680;28;20429;-79
2021/12/19 13:27:18;;;;;;;11.70;6.07;;;5.80;99.90;;;;;;5019940;28;20040;-83
2021/12/19 13:30:03;;;;;;;10.63;6.28;;;5.80;99.90;;;;;;5031401;28;20022;-81
2021/12/19 13:32:32;;;;;;;11.45;6.18;;;5.90;99.90;;;;;;5034021;28;20034;-80
2021/12/19 13:34:59;;;;;;;11.70;6.97;;;5.80;99.90;;;;;;5023563;28;20041;-78
2021/12/19 13:37:26;;;;;;;12.65;6.20;;;5.90;99.90;;;;;;5019509;28;20041;-83
2021/12/19 13:40:05;;;;;;;11.70;6.70;;;6.00;99.90;;;;;;5021392;28;20057;-83
2021/12/19 13:42:49;;;;;;;11.50;6.05;;;6.00;99.90;;;;;;5020302;28;20392;-79
2021/12/19 13:45:27;;;;;;;11.35;5.95;;;6.00;99.90;;;;;;5021979;28;20044;-80
2021/12/19 13:47:54;;;;;;;11.35;6.32;;;5.90;99.90;;;;;;5020747;28;20057;-82
2021/12/19 13:50:20;;;;;;;11.02;5.90;;;;;;;;;;5018287;28;20033;-83
2021/12/19 13:52:46;;;;;;;12.55;6.80;;;;;;;;;;5024471;28;20116;-81
2021/12/19 13:55:14;;;;;;;13.68;7.72;;;6.00;99.90;;;;;;5019758;28;20033;-80
2021/12/19 13:57:40;;;;;;;11.93;6.50;;;7.60;99.90;;;;;;5022337;28;20083;-83
2021/12/19 14:00:10;;;;;;;13.50;6.78;;;5.90;99.90;;;;;;5016122;28;20057;-83
2021/12/19 14:02:36;;;;;;;13.02;7.18;;;;;;;;;;5015835;28;20048;-79
2021/12/19 14:05:03;;;;;;;12.90;7.00;;;6.10;99.90;;;;;;5021320;28;20041;-82
2021/12/19 14:07:29;;;;;;;13.07;6.88;;;;;;;;;;5023094;28;20025;-80
2021/12/19 14:09:58;;;;;;;15.10;7.57;;;;;;;;;;5029248;28;20025;-80
2021/12/19 14:12:50;;;;;;;14.20;7.97;;;;;;;;;;5032353;28;20025;-81
2021/12/19 14:15:15;;;;;;;14.93;7.63;;;;;;;;;;5024189;28;20045;-81
2021/12/19 14:17:41;;;;;;;16.52;8.20;;;6.10;99.90;;;;;;5030842;28;20065;-81
2021/12/19 14:20:07;;;;;;;15.20;7.90;;;;;;;;;;5033700;28;20033;-85
2021/12/19 14:22:33;;;;;;;14.65;7.45;;;;;;;;;;5024100;28;20044;-80